createdAt,value
2018-09-15T00:00:04.348Z,6.83
2018-09-15T00:02:33.893Z,7.50
2018-09-15T00:05:03.428Z,7.83
2018-09-15T00:07:32.915Z,7.90
2018-09-15T00:10:02.459Z,8.13
2018-09-15T00:12:31.952Z,8.70
2018-09-15T00:15:01.500Z,8.50
2018-09-15T00:17:31.087Z,8.73
2018-09-15T00:20:00.739Z,9.23
2018-09-15T00:22:30.299Z,12.37
2018-09-15T00:24:59.875Z,20.07
2018-09-15T00:27:29.419Z,17.80
2018-09-15T00:29:58.952Z,16.37
2018-09-15T00:32:28.509Z,12.40
2018-09-15T00:34:57.998Z,8.73
2018-09-15T00:37:27.636Z,7.23
2018-09-15T00:39:57.146Z,7.70
2018-09-15T00:42:26.702Z,7.77
2018-09-15T00:44:56.210Z,8.07
2018-09-15T00:47:25.736Z,8.13
2018-09-15T00:49:55.279Z,8.07
2018-09-15T00:52:24.802Z,8.17
2018-09-15T00:54:54.339Z,8.00
2018-09-15T00:57:23.835Z,7.80
2018-09-15T00:59:53.383Z,8.17
2018-09-15T01:02:22.859Z,8.07
2018-09-15T01:04:52.398Z,8.13
2018-09-15T01:07:21.895Z,8.07
2018-09-15T01:09:51.431Z,7.33
2018-09-15T01:12:20.923Z,7.23
2018-09-15T01:14:50.480Z,7.83
2018-09-15T01:17:20.047Z,7.03
2018-09-15T01:19:49.598Z,8.10
2018-09-15T01:22:19.131Z,7.80
2018-09-15T01:24:48.674Z,7.33
2018-09-15T01:27:18.207Z,7.67
2018-09-15T01:29:47.686Z,7.77
2018-09-15T01:32:17.251Z,7.67
2018-09-15T01:34:46.878Z,7.43
2018-09-15T01:37:16.407Z,7.60
2018-09-15T01:39:45.913Z,7.70
2018-09-15T01:42:15.436Z,8.00
2018-09-15T01:44:44.968Z,8.07
2018-09-15T01:47:14.528Z,7.20
2018-09-15T01:49:44.119Z,7.13
2018-09-15T01:52:13.747Z,7.03
2018-09-15T01:54:43.386Z,6.90
2018-09-15T01:57:13.249Z,7.40
2018-09-15T01:59:42.751Z,7.40
2018-09-15T02:02:12.322Z,7.27
2018-09-15T02:04:41.815Z,7.80
2018-09-15T02:07:11.335Z,7.33
2018-09-15T02:09:40.991Z,7.90
2018-09-15T02:12:10.484Z,7.63
2018-09-15T02:14:40.010Z,8.10
2018-09-15T02:17:09.659Z,7.57
2018-09-15T02:19:39.198Z,7.70
2018-09-15T02:22:08.790Z,7.37
2018-09-15T02:24:38.322Z,7.43
2018-09-15T02:27:07.850Z,7.90
2018-09-15T02:29:37.406Z,7.50
2018-09-15T02:32:07.089Z,7.57
2018-09-15T02:34:36.572Z,7.73
2018-09-15T02:37:06.264Z,7.43
2018-09-15T02:39:35.760Z,8.47
2018-09-15T02:42:05.378Z,8.47
2018-09-15T02:44:34.858Z,8.00
2018-09-15T02:47:04.482Z,7.60
2018-09-15T02:49:33.979Z,8.20
2018-09-15T02:52:03.512Z,8.47
2018-09-15T02:54:33.007Z,7.90
2018-09-15T02:57:02.563Z,7.63
2018-09-15T02:59:32.064Z,7.47
2018-09-15T03:02:01.605Z,7.40
2018-09-15T03:04:31.152Z,7.80
2018-09-15T03:07:00.644Z,7.13
2018-09-15T03:09:30.139Z,7.23
2018-09-15T03:11:59.675Z,7.57
2018-09-15T03:14:29.268Z,6.67
2018-09-15T03:16:58.778Z,7.77
2018-09-15T03:19:28.327Z,7.67
2018-09-15T03:21:57.822Z,7.37
2018-09-15T03:24:27.683Z,7.37
2018-09-15T03:26:57.199Z,6.50
2018-09-15T03:29:26.716Z,6.73
2018-09-15T03:31:56.253Z,7.27
2018-09-15T03:34:25.828Z,6.83
2018-09-15T03:36:55.360Z,6.77
2018-09-15T03:39:24.888Z,6.87
2018-09-15T03:41:54.450Z,6.23
2018-09-15T03:44:23.959Z,7.03
2018-09-15T03:46:53.447Z,6.43
2018-09-15T03:49:23.024Z,7.53
2018-09-15T03:51:52.593Z,7.00
2018-09-15T03:54:22.407Z,6.70
2018-09-15T03:56:52.106Z,6.53
2018-09-15T03:59:21.635Z,6.03
2018-09-15T04:01:51.133Z,6.33
2018-09-15T04:04:20.680Z,7.73
2018-09-15T04:06:50.178Z,7.20
2018-09-15T04:09:19.734Z,6.70
2018-09-15T04:11:49.223Z,7.13
2018-09-15T04:14:18.743Z,7.17
2018-09-15T04:16:48.226Z,6.93
2018-09-15T04:19:17.744Z,7.60
2018-09-15T04:21:47.247Z,7.10
2018-09-15T04:24:16.779Z,7.70
2018-09-15T04:26:46.347Z,7.50
2018-09-15T04:29:15.863Z,8.93
2018-09-15T04:31:45.435Z,9.00
2018-09-15T04:34:14.925Z,8.87
2018-09-15T04:36:44.464Z,8.90
2018-09-15T04:39:13.946Z,8.97
2018-09-15T04:41:43.525Z,8.37
2018-09-15T04:44:13.035Z,8.27
2018-09-15T04:46:42.567Z,7.83
2018-09-15T04:49:12.102Z,8.43
2018-09-15T04:51:41.646Z,8.07
2018-09-15T04:54:11.175Z,8.13
2018-09-15T04:56:40.666Z,8.70
2018-09-15T04:59:10.222Z,8.20
2018-09-15T05:01:39.742Z,8.80
2018-09-15T05:04:09.286Z,9.30
2018-09-15T05:06:38.936Z,8.20
2018-09-15T05:09:10.830Z,7.93
2018-09-15T05:11:40.510Z,8.80
2018-09-15T05:14:10.047Z,9.47
2018-09-15T05:16:39.576Z,9.13
2018-09-15T05:19:09.107Z,8.30
2018-09-15T05:21:38.616Z,8.77
2018-09-15T05:24:08.177Z,7.83
2018-09-15T05:26:37.750Z,8.43
2018-09-15T05:29:07.252Z,8.17
2018-09-15T05:31:36.747Z,8.53
2018-09-15T05:34:06.331Z,8.40
2018-09-15T05:36:35.882Z,7.90
2018-09-15T05:39:08.491Z,8.83
2018-09-15T05:41:38.011Z,7.93
2018-09-15T05:44:07.567Z,7.30
2018-09-15T05:46:37.231Z,7.63
2018-09-15T05:49:06.759Z,8.03
2018-09-15T05:51:36.299Z,7.13
2018-09-15T05:54:05.795Z,6.93
2018-09-15T05:56:35.408Z,7.90
2018-09-15T05:59:04.930Z,7.77
2018-09-15T06:01:34.607Z,7.30
2018-09-15T06:04:04.152Z,7.40
2018-09-15T06:06:33.693Z,6.93
2018-09-15T06:09:03.390Z,6.70
2018-09-15T06:11:32.918Z,7.40
2018-09-15T06:14:02.414Z,7.00
2018-09-15T06:16:31.939Z,6.77
2018-09-15T06:19:01.459Z,7.13
2018-09-15T06:21:31.071Z,7.47
2018-09-15T06:24:00.604Z,7.33
2018-09-15T06:26:30.782Z,7.83
2018-09-15T06:29:00.444Z,7.17
2018-09-15T06:31:30.088Z,6.67
2018-09-15T06:33:59.635Z,6.63
2018-09-15T06:36:29.155Z,6.60
2018-09-15T06:38:58.748Z,6.70
2018-09-15T06:41:28.279Z,6.73
2018-09-15T06:43:57.799Z,6.30
2018-09-15T06:46:27.307Z,6.77
2018-09-15T06:48:56.795Z,7.20
2018-09-15T06:51:26.381Z,5.93
2018-09-15T06:53:55.918Z,6.03
2018-09-15T06:56:25.490Z,6.03
2018-09-15T06:58:55.080Z,7.00
2018-09-15T07:01:24.722Z,7.00
2018-09-15T07:03:54.223Z,7.90
2018-09-15T07:06:23.763Z,7.03
2018-09-15T07:08:53.236Z,6.30
2018-09-15T07:11:22.762Z,6.60
2018-09-15T07:13:52.394Z,6.70
2018-09-15T07:16:21.970Z,6.60
2018-09-15T07:18:51.567Z,7.37
2018-09-15T07:21:21.197Z,6.77
2018-09-15T07:23:50.731Z,6.07
2018-09-15T07:26:20.774Z,6.77
2018-09-15T07:28:50.275Z,6.03
2018-09-15T07:31:19.831Z,5.67
2018-09-15T07:33:49.398Z,5.43
2018-09-15T07:36:18.987Z,6.30
2018-09-15T07:38:48.491Z,5.50
2018-09-15T07:41:18.019Z,5.70
2018-09-15T07:43:47.595Z,6.17
2018-09-15T07:46:17.102Z,5.93
2018-09-15T07:48:46.715Z,5.60
2018-09-15T07:51:16.230Z,7.00
2018-09-15T07:53:45.811Z,5.50
2018-09-15T07:56:15.365Z,6.73
2018-09-15T07:58:44.911Z,6.27
2018-09-15T08:01:14.399Z,7.10
2018-09-15T08:03:44.011Z,5.83
2018-09-15T08:06:13.579Z,8.53
2018-09-15T08:08:43.072Z,6.67
2018-09-15T08:11:12.613Z,5.90
2018-09-15T08:13:42.102Z,5.57
2018-09-15T08:16:11.627Z,5.73
2018-09-15T08:18:41.139Z,5.70
2018-09-15T08:21:10.819Z,6.70
2018-09-15T08:23:40.325Z,5.80
2018-09-15T08:26:09.901Z,5.70
2018-09-15T08:28:39.417Z,5.33
2018-09-15T08:31:08.938Z,5.70
2018-09-15T08:33:38.427Z,5.37
2018-09-15T08:36:08.006Z,5.60
2018-09-15T08:38:37.543Z,4.90
2018-09-15T08:41:07.193Z,4.60
2018-09-15T08:43:36.692Z,4.47
2018-09-15T08:46:06.334Z,4.93
2018-09-15T08:48:35.835Z,3.93
2018-09-15T08:51:05.415Z,4.40
2018-09-15T08:53:34.926Z,4.30
2018-09-15T08:56:04.616Z,4.53
2018-09-15T08:58:34.123Z,4.60
2018-09-15T09:01:03.679Z,4.60
2018-09-15T09:03:33.184Z,4.43
2018-09-15T09:06:02.750Z,4.63
2018-09-15T09:08:32.252Z,5.90
2018-09-15T09:11:01.805Z,4.17
2018-09-15T09:13:31.302Z,5.00
2018-09-15T09:16:00.857Z,5.40
2018-09-15T09:18:30.358Z,4.37
2018-09-15T09:20:59.929Z,4.20
2018-09-15T09:23:29.561Z,3.80
2018-09-15T09:25:59.124Z,4.00
2018-09-15T09:28:28.678Z,4.43
2018-09-15T09:30:58.196Z,4.23
2018-09-15T09:33:27.763Z,3.90
2018-09-15T09:35:57.270Z,4.20
2018-09-15T09:38:26.872Z,4.00
2018-09-15T09:40:56.366Z,3.97
2018-09-15T09:43:25.855Z,3.73
2018-09-15T09:45:55.437Z,3.90
2018-09-15T09:48:24.999Z,3.73
2018-09-15T09:50:54.539Z,3.47
2018-09-15T09:53:24.054Z,4.57
2018-09-15T09:55:53.576Z,3.70
2018-09-15T09:58:23.143Z,4.10
2018-09-15T10:00:59.291Z,4.57
2018-09-15T10:03:28.824Z,3.77
2018-09-15T10:05:58.371Z,3.60
2018-09-15T10:08:27.918Z,3.73
2018-09-15T10:10:57.519Z,3.40
2018-09-15T10:13:27.120Z,3.50
2018-09-15T10:15:56.642Z,3.33
2018-09-15T10:18:26.236Z,3.87
2018-09-15T10:20:55.836Z,3.57
2018-09-15T10:23:25.491Z,4.07
2018-09-15T10:25:55.018Z,3.50
2018-09-15T10:28:24.542Z,3.37
2018-09-15T10:30:54.191Z,3.30
2018-09-15T10:33:23.735Z,3.73
2018-09-15T10:35:53.259Z,3.83
2018-09-15T10:38:22.786Z,3.47
2018-09-15T10:40:52.361Z,3.63
2018-09-15T10:43:21.879Z,3.53
2018-09-15T10:45:51.522Z,3.50
2018-09-15T10:48:21.102Z,3.70
2018-09-15T10:50:50.602Z,3.73
2018-09-15T10:53:20.312Z,3.50
2018-09-15T10:55:49.965Z,3.27
2018-09-15T10:58:19.528Z,3.70
2018-09-15T11:00:49.181Z,3.83
2018-09-15T11:03:18.814Z,4.20
2018-09-15T11:05:48.472Z,4.30
2018-09-15T11:08:18.002Z,4.00
2018-09-15T11:10:47.651Z,4.40
2018-09-15T11:13:17.335Z,3.97
2018-09-15T11:15:46.835Z,3.30
2018-09-15T11:18:16.455Z,3.40
2018-09-15T11:20:45.963Z,3.60
2018-09-15T11:23:15.554Z,3.30
2018-09-15T11:25:45.197Z,3.80
2018-09-15T11:28:14.860Z,3.47
2018-09-15T11:30:44.412Z,3.60
2018-09-15T11:33:14.109Z,3.60
2018-09-15T11:35:43.641Z,3.80
2018-09-15T11:38:13.182Z,3.70
2018-09-15T11:40:42.797Z,3.10
2018-09-15T11:43:12.713Z,3.70
2018-09-15T11:45:42.238Z,3.50
2018-09-15T11:48:11.763Z,3.67
2018-09-15T11:50:41.323Z,4.17
2018-09-15T11:53:10.975Z,3.67
2018-09-15T11:55:41.317Z,3.53
2018-09-15T11:58:10.823Z,3.73
2018-09-15T12:00:43.970Z,4.70
2018-09-15T12:03:13.475Z,4.07
2018-09-15T12:05:43.021Z,3.30
2018-09-15T12:08:12.622Z,3.50
2018-09-15T12:10:42.183Z,3.60
2018-09-15T12:13:11.765Z,3.20
2018-09-15T12:15:41.327Z,3.50
2018-09-15T12:18:10.851Z,3.50
2018-09-15T12:20:40.458Z,3.60
2018-09-15T12:23:10.059Z,3.57
2018-09-15T12:25:39.741Z,3.57
2018-09-15T12:28:09.348Z,3.20
2018-09-15T12:30:38.897Z,3.17
2018-09-15T12:33:08.415Z,3.30
2018-09-15T12:35:37.972Z,3.33
2018-09-15T12:38:07.558Z,3.87
2018-09-15T12:40:37.231Z,3.40
2018-09-15T12:43:06.830Z,3.43
2018-09-15T12:45:36.484Z,3.07
2018-09-15T12:48:06.139Z,3.40
2018-09-15T12:50:35.763Z,3.47
2018-09-15T12:53:05.307Z,3.47
2018-09-15T12:55:34.858Z,3.77
2018-09-15T12:58:04.367Z,3.50
2018-09-15T13:00:33.947Z,3.40
2018-09-15T13:03:03.434Z,3.27
2018-09-15T13:05:33.052Z,3.27
2018-09-15T13:08:02.683Z,3.20
2018-09-15T13:10:32.186Z,3.07
2018-09-15T13:13:01.802Z,3.20
2018-09-15T13:15:31.455Z,3.00
2018-09-15T13:18:00.927Z,3.37
2018-09-15T13:20:30.517Z,3.83
2018-09-15T13:23:00.178Z,3.80
2018-09-15T13:25:29.792Z,3.47
2018-09-15T13:27:59.399Z,3.60
2018-09-15T13:30:29.048Z,3.23
2018-09-15T13:32:58.678Z,3.47
2018-09-15T13:35:28.277Z,3.20
2018-09-15T13:37:57.909Z,3.40
2018-09-15T13:40:27.517Z,3.77
2018-09-15T13:42:57.055Z,3.30
2018-09-15T13:45:26.557Z,3.23
2018-09-15T13:47:56.192Z,3.23
2018-09-15T13:50:25.692Z,4.00
2018-09-15T13:52:55.321Z,3.57
2018-09-15T13:55:25.687Z,3.50
2018-09-15T13:57:55.316Z,3.90
2018-09-15T14:00:24.867Z,3.47
2018-09-15T14:02:54.464Z,4.53
2018-09-15T14:05:24.054Z,3.47
2018-09-15T14:07:53.653Z,3.40
2018-09-15T14:10:23.228Z,2.77
2018-09-15T14:12:52.848Z,3.80
2018-09-15T14:15:22.512Z,3.13
2018-09-15T14:17:52.183Z,3.03
2018-09-15T14:20:21.877Z,3.07
2018-09-15T14:22:51.443Z,3.27
2018-09-15T14:25:20.991Z,3.33
2018-09-15T14:27:50.504Z,3.17
2018-09-15T14:30:20.412Z,3.13
2018-09-15T14:32:49.975Z,3.40
2018-09-15T14:35:19.555Z,3.40
2018-09-15T14:37:49.184Z,3.17
2018-09-15T14:40:18.739Z,3.40
2018-09-15T14:42:48.321Z,3.00
2018-09-15T14:45:17.939Z,3.20
2018-09-15T14:47:47.470Z,3.57
2018-09-15T14:50:17.066Z,3.70
2018-09-15T14:52:46.588Z,3.70
2018-09-15T14:55:16.153Z,3.20
2018-09-15T14:57:45.683Z,3.90
2018-09-15T15:00:15.215Z,3.00
2018-09-15T15:02:46.683Z,3.60
2018-09-15T15:05:16.264Z,3.50
2018-09-15T15:07:45.873Z,3.60
2018-09-15T15:10:15.455Z,3.43
2018-09-15T15:12:45.086Z,3.37
2018-09-15T15:15:14.658Z,3.20
2018-09-15T15:17:44.403Z,3.70
2018-09-15T15:20:13.968Z,3.80
2018-09-15T15:22:43.582Z,4.00
2018-09-15T15:25:13.139Z,3.83
2018-09-15T15:27:42.700Z,3.80
2018-09-15T15:30:12.315Z,3.67
2018-09-15T15:32:42.000Z,3.40
2018-09-15T15:35:11.543Z,3.90
2018-09-15T15:37:41.194Z,3.80
2018-09-15T15:40:10.838Z,3.50
2018-09-15T15:42:40.345Z,3.90
2018-09-15T15:45:10.023Z,3.87
2018-09-15T15:47:39.622Z,4.13
2018-09-15T15:50:09.330Z,3.87
2018-09-15T15:52:38.936Z,4.27
2018-09-15T15:55:08.626Z,4.13
2018-09-15T15:57:38.215Z,3.90
2018-09-15T16:00:07.947Z,3.90
2018-09-15T16:02:37.560Z,4.63
2018-09-15T16:05:07.290Z,4.60
2018-09-15T16:07:36.886Z,4.73
2018-09-15T16:10:06.834Z,4.50
2018-09-15T16:12:36.337Z,4.87
2018-09-15T16:15:06.210Z,5.20
2018-09-15T16:17:35.756Z,5.40
2018-09-15T16:20:05.469Z,4.83
2018-09-15T16:22:35.054Z,5.27
2018-09-15T16:25:04.984Z,4.70
2018-09-15T16:27:34.631Z,4.77
2018-09-15T16:30:04.441Z,4.70
2018-09-15T16:32:34.133Z,4.57
2018-09-15T16:35:03.784Z,4.47
2018-09-15T16:37:33.388Z,4.40
2018-09-15T16:40:02.963Z,5.00
2018-09-15T16:42:32.483Z,4.70
2018-09-15T16:45:02.894Z,5.10
2018-09-15T16:47:32.508Z,4.87
2018-09-15T16:50:02.478Z,5.50
2018-09-15T16:52:34.784Z,5.43
2018-09-15T16:55:04.465Z,5.20
2018-09-15T16:57:35.341Z,5.10
2018-09-15T17:00:05.211Z,4.90
2018-09-15T17:02:34.840Z,5.47
2018-09-15T17:05:04.498Z,5.27
2018-09-15T17:07:34.071Z,5.20
2018-09-15T17:10:03.703Z,5.60
2018-09-15T17:12:33.300Z,5.57
2018-09-15T17:15:02.784Z,5.67
2018-09-15T17:17:32.299Z,5.50
2018-09-15T17:20:01.966Z,5.70
2018-09-15T17:22:31.637Z,5.70
2018-09-15T17:25:01.256Z,5.30
2018-09-15T17:27:30.909Z,5.40
2018-09-15T17:30:00.487Z,6.17
2018-09-15T17:32:29.966Z,6.07
2018-09-15T17:34:59.604Z,6.57
2018-09-15T17:37:29.105Z,6.43
2018-09-15T17:39:58.762Z,6.27
2018-09-15T17:42:28.287Z,6.27
2018-09-15T17:44:57.827Z,6.80
2018-09-15T17:47:27.456Z,6.80
2018-09-15T17:49:57.011Z,7.03
2018-09-15T17:52:26.629Z,6.40
2018-09-15T17:54:56.228Z,6.50
2018-09-15T17:57:25.878Z,6.30
2018-09-15T17:59:55.434Z,6.70
2018-09-15T18:02:25.058Z,6.33
2018-09-15T18:04:54.559Z,6.47
2018-09-15T18:07:24.091Z,6.20
2018-09-15T18:09:53.753Z,5.73
2018-09-15T18:12:23.279Z,6.50
2018-09-15T18:14:52.840Z,6.40
2018-09-15T18:17:22.400Z,6.83
2018-09-15T18:19:52.010Z,6.47
2018-09-15T18:22:21.676Z,6.10
2018-09-15T18:24:51.205Z,6.10
2018-09-15T18:27:21.517Z,6.57
2018-09-15T18:29:51.339Z,6.20
2018-09-15T18:32:21.583Z,6.83
2018-09-15T18:34:51.196Z,6.03
2018-09-15T18:37:20.728Z,5.90
2018-09-15T18:39:50.295Z,5.77
2018-09-15T18:42:19.917Z,6.23
2018-09-15T18:44:49.559Z,5.93
2018-09-15T18:47:19.134Z,5.83
2018-09-15T18:49:48.682Z,6.07
2018-09-15T18:52:18.215Z,7.07
2018-09-15T18:54:47.874Z,7.03
2018-09-15T18:57:17.459Z,6.53
2018-09-15T18:59:47.103Z,6.40
2018-09-15T19:02:16.697Z,6.23
2018-09-15T19:04:46.220Z,6.10
2018-09-15T19:07:15.796Z,6.77
2018-09-15T19:09:45.302Z,6.13
2018-09-15T19:12:14.835Z,6.70
2018-09-15T19:14:44.507Z,6.37
2018-09-15T19:17:14.020Z,6.10
2018-09-15T19:19:43.938Z,6.47
2018-09-15T19:22:13.470Z,6.57
2018-09-15T19:24:43.141Z,6.47
2018-09-15T19:27:12.742Z,6.50
2018-09-15T19:29:42.373Z,6.90
2018-09-15T19:32:12.267Z,7.13
2018-09-15T19:34:41.909Z,6.60
2018-09-15T19:37:11.767Z,6.83
2018-09-15T19:39:41.409Z,6.40
2018-09-15T19:42:11.883Z,6.80
2018-09-15T19:44:41.567Z,6.93
2018-09-15T19:47:11.131Z,6.53
2018-09-15T19:49:40.648Z,6.60
2018-09-15T19:52:10.281Z,6.70
2018-09-15T19:54:39.849Z,7.03
2018-09-15T19:57:09.375Z,7.10
2018-09-15T19:59:39.027Z,7.37
2018-09-15T20:02:08.748Z,7.53
2018-09-15T20:04:38.294Z,7.43
2018-09-15T20:07:07.842Z,7.00
2018-09-15T20:09:37.487Z,7.10
2018-09-15T20:12:07.134Z,7.20
2018-09-15T20:14:36.655Z,7.10
2018-09-15T20:17:04.736Z,7.40
2018-09-15T20:19:32.945Z,7.23
2018-09-15T20:22:02.534Z,7.37
2018-09-15T20:24:32.074Z,7.43
2018-09-15T20:27:01.616Z,7.30
2018-09-15T20:29:31.255Z,7.37
2018-09-15T20:32:00.793Z,7.73
2018-09-15T20:34:30.434Z,7.53
2018-09-15T20:36:59.959Z,7.97
2018-09-15T20:39:29.630Z,7.27
2018-09-15T20:41:59.228Z,7.97
2018-09-15T20:44:28.775Z,8.03
2018-09-15T20:46:58.261Z,8.50
2018-09-15T20:49:27.787Z,7.80
2018-09-15T20:51:57.271Z,8.27
2018-09-15T20:54:26.904Z,7.83
2018-09-15T20:56:56.454Z,8.00
2018-09-15T20:59:26.051Z,8.40
2018-09-15T21:01:55.637Z,8.40
2018-09-15T21:04:25.332Z,8.03
2018-09-15T21:06:54.835Z,8.27
2018-09-15T21:09:24.445Z,8.23
2018-09-15T21:11:54.032Z,8.20
2018-09-15T21:14:23.601Z,8.57
2018-09-15T21:16:53.229Z,8.73
2018-09-15T21:19:22.897Z,8.70
2018-09-15T21:21:52.521Z,8.43
2018-09-15T21:24:22.059Z,8.40
2018-09-15T21:26:51.570Z,9.40
2018-09-15T21:29:21.098Z,8.87
2018-09-15T21:31:50.652Z,8.63
2018-09-15T21:34:20.187Z,9.07
2018-09-15T21:36:49.713Z,9.17
2018-09-15T21:39:19.343Z,9.20
2018-09-15T21:41:48.842Z,9.03
2018-09-15T21:44:18.452Z,9.20
2018-09-15T21:46:47.959Z,9.27
2018-09-15T21:49:17.505Z,9.17
2018-09-15T21:51:47.004Z,9.03
2018-09-15T21:54:16.566Z,9.60
2018-09-15T21:56:46.170Z,9.70
2018-09-15T21:59:15.715Z,9.23
2018-09-15T22:01:45.219Z,9.50
2018-09-15T22:04:20.766Z,9.50
2018-09-15T22:06:51.921Z,8.80
2018-09-15T22:09:21.477Z,9.03
2018-09-15T22:11:51.124Z,9.70
2018-09-15T22:14:20.642Z,9.80
2018-09-15T22:16:50.196Z,9.87
2018-09-15T22:19:19.703Z,8.97
2018-09-15T22:21:49.243Z,9.07
2018-09-15T22:24:18.745Z,9.40
2018-09-15T22:26:48.306Z,9.33
2018-09-15T22:29:17.795Z,9.30
2018-09-15T22:31:47.421Z,9.40
2018-09-15T22:34:16.920Z,9.43
2018-09-15T22:36:46.459Z,9.97
2018-09-15T22:39:15.963Z,9.30
2018-09-15T22:41:45.491Z,9.33
2018-09-15T22:44:14.994Z,9.50
2018-09-15T22:46:44.514Z,9.57
2018-09-15T22:49:14.008Z,9.30
2018-09-15T22:51:43.499Z,9.83
2018-09-15T22:54:13.077Z,9.20
2018-09-15T22:56:42.612Z,9.60
2018-09-15T22:59:12.132Z,9.77
2018-09-15T23:01:41.689Z,9.23
2018-09-15T23:04:12.950Z,9.77
2018-09-15T23:06:42.535Z,9.70
2018-09-15T23:09:12.555Z,9.53
2018-09-15T23:11:42.095Z,9.80
2018-09-15T23:14:11.599Z,9.33
2018-09-15T23:16:41.173Z,9.97
2018-09-15T23:19:10.716Z,9.20
2018-09-15T23:21:40.223Z,9.73
2018-09-15T23:24:09.771Z,9.57
2018-09-15T23:26:39.311Z,9.30
2018-09-15T23:29:08.868Z,9.80
2018-09-15T23:31:38.371Z,9.63
2018-09-15T23:34:08.027Z,9.03
2018-09-15T23:36:37.506Z,9.70
2018-09-15T23:39:08.878Z,9.60
2018-09-15T23:41:38.515Z,9.73
2018-09-15T23:44:08.071Z,9.33
2018-09-15T23:46:37.773Z,9.73
2018-09-15T23:49:07.274Z,9.53
2018-09-15T23:51:36.794Z,9.10
2018-09-15T23:54:06.326Z,9.60
2018-09-15T23:56:35.823Z,9.67
2018-09-15T23:59:05.619Z,9.30
